createdAt,value
2019-03-27T00:00:16.209Z,22.30
2019-03-27T00:02:46.908Z,23.77
2019-03-27T00:05:16.741Z,26.17
2019-03-27T00:07:46.078Z,25.92
2019-03-27T00:10:15.808Z,27.32
2019-03-27T00:12:45.148Z,27.65
2019-03-27T00:15:14.613Z,27.80
2019-03-27T00:17:43.997Z,23.05
2019-03-27T00:20:13.863Z,27.27
2019-03-27T00:22:43.204Z,32.28
2019-03-27T00:25:12.705Z,27.95
2019-03-27T00:27:42.315Z,27.20
2019-03-27T00:30:12.090Z,31.42
2019-03-27T00:32:41.428Z,26.37
2019-03-27T00:35:11.007Z,31.35
2019-03-27T00:37:40.405Z,28.60
2019-03-27T00:40:09.970Z,25.27
2019-03-27T00:42:39.306Z,32.73
2019-03-27T00:45:09.373Z,29.42
2019-03-27T00:47:38.958Z,26.07
2019-03-27T00:50:09.222Z,27.40
2019-03-27T00:52:38.905Z,36.15
2019-03-27T00:55:09.771Z,34.65
2019-03-27T00:57:39.128Z,26.75
2019-03-27T01:00:26.599Z,35.58
2019-03-27T01:02:56.004Z,30.70
2019-03-27T01:05:25.352Z,30.92
2019-03-27T01:07:54.973Z,32.67
2019-03-27T01:10:24.302Z,34.45
2019-03-27T01:12:54.776Z,30.65
2019-03-27T01:15:24.108Z,36.17
2019-03-27T01:17:53.443Z,33.08
2019-03-27T01:20:23.115Z,30.30
2019-03-27T01:22:52.546Z,39.15
2019-03-27T01:25:22.132Z,29.77
2019-03-27T01:27:51.746Z,31.70
2019-03-27T01:30:21.163Z,33.23
2019-03-27T01:32:50.500Z,32.48
2019-03-27T01:35:19.834Z,32.17
2019-03-27T01:37:49.473Z,36.65
2019-03-27T01:40:18.806Z,29.25
2019-03-27T01:42:48.141Z,33.78
2019-03-27T01:45:17.779Z,35.60
2019-03-27T01:47:47.112Z,32.08
2019-03-27T01:50:16.452Z,34.33
2019-03-27T01:52:45.807Z,29.87
2019-03-27T01:55:15.123Z,35.23
2019-03-27T01:57:44.788Z,34.30
2019-03-27T02:00:14.565Z,31.00
2019-03-27T02:02:43.893Z,38.05
2019-03-27T02:05:13.435Z,33.85
2019-03-27T02:07:42.776Z,37.15
2019-03-27T02:10:13.559Z,30.70
2019-03-27T02:12:42.885Z,31.23
2019-03-27T02:15:12.666Z,28.27
2019-03-27T02:17:42.236Z,33.42
2019-03-27T02:20:12.012Z,37.55
2019-03-27T02:22:41.344Z,31.20
2019-03-27T02:25:10.750Z,35.63
2019-03-27T02:27:40.084Z,37.35
2019-03-27T02:30:09.977Z,31.60
2019-03-27T02:32:39.314Z,36.60
2019-03-27T02:35:08.653Z,39.20
2019-03-27T02:37:37.987Z,36.33
2019-03-27T02:40:08.338Z,29.70
2019-03-27T02:42:37.996Z,33.80
2019-03-27T02:45:07.512Z,34.10
2019-03-27T02:47:36.874Z,41.08
2019-03-27T02:50:07.846Z,43.83
2019-03-27T02:52:37.186Z,39.23
2019-03-27T02:55:07.613Z,42.93
2019-03-27T02:57:36.934Z,37.25
2019-03-27T03:00:11.950Z,38.53
2019-03-27T03:02:41.277Z,38.88
2019-03-27T03:05:11.258Z,37.20
2019-03-27T03:07:40.587Z,35.15
2019-03-27T03:10:10.865Z,47.20
2019-03-27T03:12:40.197Z,42.75
2019-03-27T03:15:10.086Z,48.17
2019-03-27T03:17:39.417Z,54.13
2019-03-27T03:20:09.288Z,48.73
2019-03-27T03:22:38.671Z,47.08
2019-03-27T03:25:08.844Z,48.85
2019-03-27T03:27:38.187Z,48.02
2019-03-27T03:30:09.719Z,41.63
2019-03-27T03:32:39.043Z,48.92
2019-03-27T03:35:08.919Z,46.92
2019-03-27T03:37:38.246Z,47.93
2019-03-27T03:40:08.429Z,44.95
2019-03-27T03:42:37.765Z,43.55
2019-03-27T03:45:07.545Z,39.78
2019-03-27T03:47:36.866Z,44.95
2019-03-27T03:50:09.347Z,39.85
2019-03-27T03:52:38.946Z,43.50
2019-03-27T03:55:08.525Z,33.98
2019-03-27T03:57:38.209Z,45.30
2019-03-27T04:00:08.292Z,41.70
2019-03-27T04:02:37.620Z,43.10
2019-03-27T04:05:07.888Z,48.60
2019-03-27T04:07:38.307Z,47.83
2019-03-27T04:10:07.913Z,45.38
2019-03-27T04:12:37.246Z,41.05
2019-03-27T04:15:07.504Z,50.48
2019-03-27T04:17:36.845Z,49.30
2019-03-27T04:20:07.520Z,43.45
2019-03-27T04:22:36.922Z,44.60
2019-03-27T04:25:07.196Z,53.00
2019-03-27T04:27:36.583Z,50.30
2019-03-27T04:30:08.517Z,49.65
2019-03-27T04:32:38.940Z,55.78
2019-03-27T04:35:08.432Z,51.20
2019-03-27T04:37:37.984Z,49.33
2019-03-27T04:40:07.849Z,53.70
2019-03-27T04:42:37.181Z,50.83
2019-03-27T04:45:07.090Z,52.73
2019-03-27T04:47:36.525Z,51.00
2019-03-27T04:50:07.187Z,48.50
2019-03-27T04:52:36.520Z,53.80
2019-03-27T04:55:07.690Z,48.42
2019-03-27T04:57:37.020Z,49.70
2019-03-27T05:00:07.686Z,45.73
2019-03-27T05:02:37.021Z,52.90
2019-03-27T05:05:07.650Z,52.35
2019-03-27T05:07:37.068Z,60.85
2019-03-27T05:10:06.638Z,47.45
2019-03-27T05:12:38.843Z,53.38
2019-03-27T05:15:08.451Z,57.78
2019-03-27T05:17:45.672Z,46.73
2019-03-27T05:20:09.301Z,49.27
2019-03-27T05:22:38.717Z,49.35
2019-03-27T05:25:08.607Z,57.45
2019-03-27T05:27:38.920Z,54.83
2019-03-27T05:30:08.687Z,45.28
2019-03-27T05:32:38.084Z,52.98
2019-03-27T05:35:07.483Z,46.45
2019-03-27T05:37:36.824Z,50.45
2019-03-27T05:40:07.792Z,55.20
2019-03-27T05:42:37.417Z,50.28
2019-03-27T05:45:07.179Z,53.90
2019-03-27T05:47:36.534Z,53.65
2019-03-27T05:50:06.610Z,52.65
2019-03-27T05:52:35.943Z,54.50
2019-03-27T05:55:06.819Z,51.18
2019-03-27T05:57:36.147Z,54.75
2019-03-27T06:00:07.194Z,51.63
2019-03-27T06:02:36.517Z,53.08
2019-03-27T06:05:06.592Z,52.95
2019-03-27T06:07:35.922Z,49.77
2019-03-27T06:10:06.600Z,50.60
2019-03-27T06:12:35.930Z,51.83
2019-03-27T06:15:06.704Z,68.85
2019-03-27T06:17:36.034Z,59.58
2019-03-27T06:20:07.181Z,64.65
2019-03-27T06:22:36.511Z,64.87
2019-03-27T06:25:07.651Z,62.95
2019-03-27T06:27:37.316Z,59.20
2019-03-27T06:30:07.493Z,56.35
2019-03-27T06:32:37.093Z,52.48
2019-03-27T06:35:08.838Z,60.78
2019-03-27T06:37:38.415Z,60.63
2019-03-27T06:40:08.182Z,58.42
2019-03-27T06:42:37.513Z,61.65
2019-03-27T06:45:07.385Z,56.75
2019-03-27T06:47:36.712Z,63.00
2019-03-27T06:50:07.482Z,49.90
2019-03-27T06:52:36.900Z,60.03
2019-03-27T06:55:08.065Z,58.10
2019-03-27T06:57:37.394Z,54.85
2019-03-27T07:00:08.936Z,54.90
2019-03-27T07:02:38.313Z,53.55
2019-03-27T07:05:08.029Z,47.55
2019-03-27T07:07:37.360Z,54.83
2019-03-27T07:10:07.865Z,59.98
2019-03-27T07:12:38.128Z,56.63
2019-03-27T07:15:08.976Z,56.05
2019-03-27T07:17:38.419Z,54.18
2019-03-27T07:20:08.485Z,55.83
2019-03-27T07:22:37.818Z,53.83
2019-03-27T07:25:08.797Z,47.98
2019-03-27T07:27:38.130Z,53.33
2019-03-27T07:30:08.215Z,50.90
2019-03-27T07:32:37.541Z,49.85
2019-03-27T07:35:07.523Z,48.15
2019-03-27T07:37:37.825Z,43.90
2019-03-27T07:40:08.216Z,45.52
2019-03-27T07:42:37.539Z,51.00
2019-03-27T07:45:08.423Z,47.00
2019-03-27T07:47:37.754Z,45.17
2019-03-27T07:50:07.728Z,46.13
2019-03-27T07:52:37.060Z,48.52
2019-03-27T07:55:18.762Z,43.35
2019-03-27T07:57:37.860Z,40.98
2019-03-27T08:00:13.663Z,41.65
2019-03-27T08:02:43.168Z,50.92
2019-03-27T08:05:13.062Z,43.00
2019-03-27T08:07:42.491Z,39.58
2019-03-27T08:10:12.165Z,48.05
2019-03-27T08:12:41.976Z,43.40
2019-03-27T08:15:11.645Z,49.45
2019-03-27T08:17:40.991Z,35.60
2019-03-27T08:20:10.964Z,36.23
2019-03-27T08:22:40.337Z,40.12
2019-03-27T08:25:10.109Z,36.28
2019-03-27T08:27:39.444Z,36.40
2019-03-27T08:30:12.069Z,29.50
2019-03-27T08:32:41.451Z,32.75
2019-03-27T08:35:11.524Z,38.92
2019-03-27T08:37:40.961Z,39.42
2019-03-27T08:40:11.032Z,34.23
2019-03-27T08:42:40.468Z,31.60
2019-03-27T08:45:10.877Z,28.50
2019-03-27T08:47:40.213Z,27.70
2019-03-27T08:50:10.890Z,21.02
2019-03-27T08:52:40.219Z,20.95
2019-03-27T08:55:13.416Z,27.13
2019-03-27T08:57:41.149Z,17.40
2019-03-27T09:00:13.165Z,22.52
2019-03-27T09:02:42.511Z,25.52
2019-03-27T09:05:12.453Z,26.42
2019-03-27T09:07:41.780Z,24.05
2019-03-27T09:10:13.350Z,26.02
2019-03-27T09:12:42.682Z,27.48
2019-03-27T09:15:12.680Z,23.35
2019-03-27T09:17:43.083Z,19.40
2019-03-27T09:20:12.944Z,22.77
2019-03-27T09:22:42.272Z,19.12
2019-03-27T09:25:11.828Z,18.42
2019-03-27T09:27:41.156Z,22.73
2019-03-27T09:30:12.960Z,19.80
2019-03-27T09:32:43.375Z,18.87
2019-03-27T09:35:13.215Z,26.35
2019-03-27T09:37:42.633Z,25.65
2019-03-27T09:40:12.330Z,16.65
2019-03-27T09:42:41.663Z,20.65
2019-03-27T09:45:13.098Z,19.82
2019-03-27T09:47:42.482Z,21.70
2019-03-27T09:50:12.151Z,18.50
2019-03-27T09:52:41.476Z,15.50
2019-03-27T09:55:10.896Z,16.97
2019-03-27T09:57:40.299Z,16.97
2019-03-27T10:00:10.560Z,21.52
2019-03-27T10:02:39.895Z,17.92
2019-03-27T10:05:09.818Z,13.72
2019-03-27T10:07:39.420Z,16.62
2019-03-27T10:10:09.080Z,18.65
2019-03-27T10:12:38.413Z,19.60
2019-03-27T10:15:08.375Z,15.80
2019-03-27T10:17:37.705Z,16.82
2019-03-27T10:20:07.678Z,18.73
2019-03-27T10:22:37.000Z,19.67
2019-03-27T10:25:07.668Z,20.57
2019-03-27T10:27:37.001Z,16.48
2019-03-27T10:30:07.668Z,14.98
2019-03-27T10:32:37.005Z,13.78
2019-03-27T10:35:07.001Z,13.00
2019-03-27T10:37:36.364Z,12.47
2019-03-27T10:40:07.968Z,13.00
2019-03-27T10:42:37.307Z,12.33
2019-03-27T10:45:07.369Z,10.38
2019-03-27T10:47:36.774Z,12.82
2019-03-27T10:50:17.453Z,15.78
2019-03-27T10:52:38.328Z,6.42
2019-03-27T10:55:08.130Z,9.85
2019-03-27T10:57:37.478Z,7.45
2019-03-27T11:00:09.723Z,12.40
2019-03-27T11:02:40.239Z,9.33
2019-03-27T11:05:09.849Z,12.45
2019-03-27T11:07:39.157Z,10.00
2019-03-27T11:10:09.832Z,7.95
2019-03-27T11:12:39.580Z,11.57
2019-03-27T11:15:09.550Z,11.00
2019-03-27T11:17:39.138Z,11.30
2019-03-27T11:20:09.203Z,9.83
2019-03-27T11:22:38.617Z,8.25
2019-03-27T11:25:08.178Z,9.78
2019-03-27T11:27:37.542Z,8.15
2019-03-27T11:30:09.510Z,8.28
2019-03-27T11:32:38.844Z,9.25
2019-03-27T11:35:09.683Z,11.85
2019-03-27T11:37:39.022Z,9.23
2019-03-27T11:40:08.677Z,6.80
2019-03-27T11:42:38.073Z,12.88
2019-03-27T11:45:09.380Z,11.33
2019-03-27T11:47:38.704Z,8.15
2019-03-27T11:50:09.740Z,6.75
2019-03-27T11:52:39.066Z,6.53
2019-03-27T11:55:08.728Z,7.58
2019-03-27T11:57:38.357Z,6.00
2019-03-27T12:00:11.484Z,9.40
2019-03-27T12:02:41.139Z,9.30
2019-03-27T12:05:10.699Z,8.38
2019-03-27T12:07:40.032Z,8.75
2019-03-27T12:10:10.088Z,9.70
2019-03-27T12:12:39.421Z,9.60
2019-03-27T12:15:09.091Z,6.80
2019-03-27T12:17:38.408Z,9.98
2019-03-27T12:20:07.961Z,8.50
2019-03-27T12:22:37.298Z,7.50
2019-03-27T12:25:06.860Z,9.05
2019-03-27T12:27:36.193Z,10.58
2019-03-27T12:30:07.261Z,8.43
2019-03-27T12:32:36.718Z,8.35
2019-03-27T12:35:06.379Z,9.68
2019-03-27T12:37:35.700Z,8.78
2019-03-27T12:40:11.364Z,8.68
2019-03-27T12:42:37.603Z,10.13
2019-03-27T12:45:07.571Z,10.98
2019-03-27T12:47:36.899Z,11.03
2019-03-27T12:50:08.535Z,13.28
2019-03-27T12:52:37.944Z,35.45
2019-03-27T12:55:08.041Z,11.93
2019-03-27T12:57:37.367Z,9.53
2019-03-27T13:00:09.804Z,12.30
2019-03-27T13:02:39.156Z,11.45
2019-03-27T13:05:08.457Z,10.13
2019-03-27T13:07:49.514Z,11.55
2019-03-27T13:10:09.481Z,11.43
2019-03-27T13:12:39.882Z,10.48
2019-03-27T13:15:09.380Z,8.28
2019-03-27T13:17:38.705Z,8.30
2019-03-27T13:20:08.882Z,11.20
2019-03-27T13:22:38.649Z,10.38
2019-03-27T13:25:09.362Z,11.10
2019-03-27T13:27:39.605Z,11.22
2019-03-27T13:30:09.685Z,10.85
2019-03-27T13:32:39.007Z,9.48
2019-03-27T13:35:09.442Z,8.88
2019-03-27T13:37:38.760Z,9.73
2019-03-27T13:40:09.793Z,7.53
2019-03-27T13:42:39.123Z,9.10
2019-03-27T13:45:08.971Z,7.42
2019-03-27T13:47:38.525Z,8.38
2019-03-27T13:50:12.951Z,10.18
2019-03-27T13:55:10.727Z,7.67
2019-03-27T13:57:40.049Z,8.20
2019-03-27T14:00:12.688Z,9.65
2019-03-27T14:02:42.014Z,9.85
2019-03-27T14:05:12.548Z,7.30
2019-03-27T14:07:41.872Z,12.80
2019-03-27T14:10:11.640Z,9.75
2019-03-27T14:12:40.964Z,10.75
2019-03-27T14:15:10.976Z,10.72
2019-03-27T14:17:40.307Z,6.85
2019-03-27T14:20:10.388Z,7.15
2019-03-27T14:22:39.712Z,12.00
2019-03-27T14:25:10.440Z,10.35
2019-03-27T14:27:39.763Z,8.25
2019-03-27T14:30:12.528Z,8.63
2019-03-27T14:32:41.847Z,9.90
2019-03-27T14:35:11.462Z,12.03
2019-03-27T14:37:40.785Z,7.45
2019-03-27T14:40:10.458Z,7.37
2019-03-27T14:42:39.777Z,9.40
2019-03-27T14:45:09.644Z,9.05
2019-03-27T14:47:38.969Z,9.80
2019-03-27T14:50:09.445Z,7.58
2019-03-27T14:52:38.834Z,9.23
2019-03-27T14:55:08.512Z,12.30
2019-03-27T14:57:38.374Z,8.48
2019-03-27T15:00:09.742Z,7.60
2019-03-27T15:02:39.208Z,10.50
2019-03-27T15:05:09.249Z,7.12
2019-03-27T15:07:38.578Z,10.28
2019-03-27T15:10:09.252Z,8.53
2019-03-27T15:12:38.833Z,8.50
2019-03-27T15:15:09.686Z,13.48
2019-03-27T15:17:39.138Z,6.85
2019-03-27T15:20:10.931Z,11.80
2019-03-27T15:22:40.551Z,9.38
2019-03-27T15:25:10.672Z,8.55
2019-03-27T15:27:41.017Z,11.63
2019-03-27T15:30:13.461Z,10.45
2019-03-27T15:32:43.056Z,9.05
2019-03-27T15:35:12.521Z,11.88
2019-03-27T15:37:41.855Z,9.53
2019-03-27T15:40:13.321Z,8.38
2019-03-27T15:42:43.307Z,10.18
2019-03-27T15:45:12.793Z,10.55
2019-03-27T15:47:42.113Z,15.15
2019-03-27T15:50:11.512Z,18.02
2019-03-27T15:52:41.643Z,10.78
2019-03-27T15:55:11.212Z,12.18
2019-03-27T15:57:40.778Z,10.55
2019-03-27T16:00:11.917Z,11.48
2019-03-27T16:02:41.325Z,11.10
2019-03-27T16:05:11.976Z,9.18
2019-03-27T16:07:41.307Z,7.30
2019-03-27T16:10:10.906Z,10.28
2019-03-27T16:12:40.243Z,10.43
2019-03-27T16:15:10.505Z,9.20
2019-03-27T16:17:39.838Z,10.30
2019-03-27T16:20:10.104Z,14.13
2019-03-27T16:22:49.891Z,9.60
2019-03-27T16:25:10.605Z,7.08
2019-03-27T16:27:40.914Z,11.15
2019-03-27T16:30:11.375Z,9.95
2019-03-27T16:32:40.761Z,8.43
2019-03-27T16:35:10.158Z,11.50
2019-03-27T16:37:39.479Z,9.83
2019-03-27T16:40:08.946Z,9.40
2019-03-27T16:42:38.269Z,11.03
2019-03-27T16:45:08.339Z,11.93
2019-03-27T16:47:37.973Z,11.55
2019-03-27T16:50:08.209Z,10.43
2019-03-27T16:52:37.535Z,10.45
2019-03-27T16:55:08.112Z,10.28
2019-03-27T16:57:37.443Z,11.18
2019-03-27T17:00:10.771Z,11.93
2019-03-27T17:02:40.098Z,10.23
2019-03-27T17:05:09.501Z,10.40
2019-03-27T17:07:39.153Z,12.75
2019-03-27T17:10:09.822Z,9.60
2019-03-27T17:12:39.149Z,12.40
2019-03-27T17:15:08.722Z,11.05
2019-03-27T17:17:38.058Z,11.10
2019-03-27T17:20:12.297Z,11.55
2019-03-27T17:22:41.695Z,10.72
2019-03-27T17:25:11.195Z,12.35
2019-03-27T17:27:40.520Z,11.43
2019-03-27T17:30:11.297Z,10.30
2019-03-27T17:32:40.789Z,10.58
2019-03-27T17:35:10.390Z,13.68
2019-03-27T17:37:39.700Z,14.53
2019-03-27T17:40:09.999Z,13.85
2019-03-27T17:42:39.334Z,10.48
2019-03-27T17:45:09.110Z,14.20
2019-03-27T17:47:38.512Z,15.32
2019-03-27T17:50:08.222Z,14.00
2019-03-27T17:52:38.426Z,14.60
2019-03-27T17:55:08.737Z,10.08
2019-03-27T17:57:38.403Z,10.90
2019-03-27T18:00:09.845Z,11.55
2019-03-27T18:02:39.232Z,9.15
2019-03-27T18:05:08.840Z,10.88
2019-03-27T18:07:38.280Z,11.60
2019-03-27T18:10:08.275Z,15.48
2019-03-27T18:12:37.701Z,11.63
2019-03-27T18:15:07.841Z,12.75
2019-03-27T18:17:37.156Z,13.43
2019-03-27T18:20:06.878Z,14.18
2019-03-27T18:22:36.207Z,13.80
2019-03-27T18:25:07.285Z,11.08
2019-03-27T18:27:36.620Z,11.97
2019-03-27T18:30:08.772Z,10.05
2019-03-27T18:32:38.347Z,12.78
2019-03-27T18:35:07.968Z,12.80
2019-03-27T18:37:37.297Z,18.70
2019-03-27T18:40:07.065Z,16.65
2019-03-27T18:42:37.415Z,13.75
2019-03-27T18:45:07.399Z,16.50
2019-03-27T18:47:37.688Z,14.87
2019-03-27T18:50:07.943Z,13.38
2019-03-27T18:52:37.229Z,13.18
2019-03-27T18:55:07.784Z,14.75
2019-03-27T18:57:37.189Z,14.47
2019-03-27T19:00:08.470Z,15.38
2019-03-27T19:02:38.813Z,16.50
2019-03-27T19:05:08.704Z,14.60
2019-03-27T19:07:38.109Z,16.15
2019-03-27T19:10:08.200Z,16.45
2019-03-27T19:12:37.537Z,14.78
2019-03-27T19:15:07.408Z,14.85
2019-03-27T19:17:36.737Z,15.72
2019-03-27T19:20:07.015Z,18.20
2019-03-27T19:22:36.359Z,15.90
2019-03-27T19:25:07.397Z,21.97
2019-03-27T19:27:37.701Z,17.12
2019-03-27T19:30:08.982Z,18.23
2019-03-27T19:32:38.398Z,17.77
2019-03-27T19:35:09.130Z,14.05
2019-03-27T19:37:38.531Z,16.48
2019-03-27T19:40:08.125Z,16.42
2019-03-27T19:42:37.833Z,15.90
2019-03-27T19:45:07.328Z,17.40
2019-03-27T19:47:37.151Z,16.17
2019-03-27T19:50:07.419Z,15.45
2019-03-27T19:52:36.973Z,15.68
2019-03-27T19:55:06.462Z,15.75
2019-03-27T19:57:35.799Z,15.85
2019-03-27T20:00:10.142Z,13.38
2019-03-27T20:02:39.681Z,16.02
2019-03-27T20:05:09.555Z,20.10
2019-03-27T20:07:38.885Z,18.42
2019-03-27T20:10:09.197Z,15.15
2019-03-27T20:12:38.533Z,22.67
2019-03-27T20:15:12.104Z,18.60
2019-03-27T20:17:39.808Z,23.85
2019-03-27T20:20:09.988Z,17.50
2019-03-27T20:22:39.324Z,19.95
2019-03-27T20:25:09.490Z,22.25
2019-03-27T20:27:39.077Z,17.65
2019-03-27T20:30:14.434Z,17.37
2019-03-27T20:32:44.034Z,20.57
2019-03-27T20:35:13.447Z,17.98
2019-03-27T20:37:42.779Z,21.12
2019-03-27T20:40:13.999Z,22.58
2019-03-27T20:42:44.302Z,20.62
2019-03-27T20:45:14.048Z,18.85
2019-03-27T20:47:43.434Z,20.68
2019-03-27T20:50:13.013Z,22.60
2019-03-27T20:52:42.339Z,17.92
2019-03-27T20:55:12.019Z,21.90
2019-03-27T20:57:41.347Z,22.55
2019-03-27T21:00:12.897Z,18.42
2019-03-27T21:02:42.618Z,19.07
2019-03-27T21:05:12.103Z,19.75
2019-03-27T21:07:41.527Z,18.75
2019-03-27T21:10:11.006Z,19.77
2019-03-27T21:12:40.354Z,30.37
2019-03-27T21:15:10.124Z,36.30
2019-03-27T21:17:39.684Z,32.33
2019-03-27T21:20:09.861Z,24.52
2019-03-27T21:22:39.188Z,19.73
2019-03-27T21:25:09.875Z,21.40
2019-03-27T21:27:39.341Z,22.80
2019-03-27T21:30:09.449Z,21.42
2019-03-27T21:32:38.856Z,26.60
2019-03-27T21:35:08.670Z,18.40
2019-03-27T21:37:38.001Z,19.05
2019-03-27T21:40:08.578Z,18.87
2019-03-27T21:42:38.911Z,18.75
2019-03-27T21:45:10.394Z,19.90
2019-03-27T21:47:39.728Z,17.05
2019-03-27T21:50:10.510Z,17.75
2019-03-27T21:52:40.066Z,20.35
2019-03-27T21:55:21.899Z,18.17
2019-03-27T21:57:41.066Z,19.37
2019-03-27T22:00:10.851Z,17.87
2019-03-27T22:02:40.221Z,16.52
2019-03-27T22:05:09.599Z,19.48
2019-03-27T22:07:38.949Z,22.13
2019-03-27T22:10:09.024Z,20.12
2019-03-27T22:12:38.778Z,21.57
2019-03-27T22:15:08.972Z,18.15
2019-03-27T22:17:38.646Z,17.15
2019-03-27T22:20:08.733Z,18.05
2019-03-27T22:22:38.057Z,19.27
2019-03-27T22:25:08.038Z,19.15
2019-03-27T22:27:37.376Z,18.80
2019-03-27T22:30:08.776Z,24.87
2019-03-27T22:32:38.147Z,19.50
2019-03-27T22:35:08.327Z,20.62
2019-03-27T22:37:37.664Z,23.50
2019-03-27T22:40:07.438Z,22.35
2019-03-27T22:42:36.775Z,19.80
2019-03-27T22:45:07.347Z,19.00
2019-03-27T22:47:37.018Z,19.42
2019-03-27T22:50:08.652Z,23.32
2019-03-27T22:52:38.369Z,20.25
2019-03-27T22:55:08.179Z,21.40
2019-03-27T22:57:37.514Z,20.00
2019-03-27T23:00:13.760Z,24.57
2019-03-27T23:02:44.785Z,17.50
2019-03-27T23:05:14.286Z,20.35
2019-03-27T23:07:43.618Z,20.77
2019-03-27T23:10:13.190Z,21.48
2019-03-27T23:12:42.828Z,19.05
2019-03-27T23:15:12.327Z,18.57
2019-03-27T23:17:41.765Z,23.40
2019-03-27T23:20:11.284Z,21.60
2019-03-27T23:22:40.670Z,18.25
2019-03-27T23:25:10.482Z,18.02
2019-03-27T23:27:39.892Z,22.60
2019-03-27T23:30:10.492Z,19.35
2019-03-27T23:32:40.120Z,19.62
2019-03-27T23:35:09.519Z,20.88
2019-03-27T23:37:38.866Z,20.32
2019-03-27T23:40:09.544Z,16.30
2019-03-27T23:42:38.882Z,16.05
2019-03-27T23:45:09.053Z,19.90
2019-03-27T23:47:38.774Z,19.35
2019-03-27T23:50:09.848Z,19.80
2019-03-27T23:52:40.378Z,20.00
2019-03-27T23:55:09.843Z,17.60
2019-03-27T23:57:39.190Z,20.85
